sensor_id;sensor_type;location;lat;lon;timestamp;P1;durP1;ratioP1;P2;durP2;ratioP2
9815;SDS011;4947;44.526;11.360;2023-05-10T07:46:31;1.70;;;1.60;;
9815;SDS011;4947;44.526;11.360;2023-05-10T07:48:59;2.20;;;2.00;;
9815;SDS011;4947;44.526;11.360;2023-05-10T07:51:34;2.92;;;2.00;;
9815;SDS011;4947;44.526;11.360;2023-05-10T07:54:01;1.70;;;1.60;;
9815;SDS011;4947;44.526;11.360;2023-05-10T07:56:29;1.70;;;1.60;;
9815;SDS011;4947;44.526;11.360;2023-05-10T07:58:57;1.73;;;1.63;;
9815;SDS011;4947;44.526;11.360;2023-05-10T08:01:26;1.70;;;1.60;;
9815;SDS011;4947;44.526;11.360;2023-05-10T08:03:57;2.60;;;1.73;;
9815;SDS011;4947;44.526;11.360;2023-05-10T08:06:25;1.85;;;1.50;;
9815;SDS011;4947;44.526;11.360;2023-05-10T08:08:54;1.45;;;1.35;;
9815;SDS011;4947;44.526;11.360;2023-05-10T08:11:23;1.48;;;1.38;;
9815;SDS011;4947;44.526;11.360;2023-05-10T08:13:50;1.60;;;1.50;;
9815;SDS011;4947;44.526;11.360;2023-05-10T08:16:18;1.85;;;1.75;;
9815;SDS011;4947;44.526;11.360;2023-05-10T08:18:45;1.90;;;1.35;;
9815;SDS011;4947;44.526;11.360;2023-05-10T08:21:15;1.65;;;1.55;;
9815;SDS011;4947;44.526;11.360;2023-05-10T08:26:10;3.10;;;1.70;;
9815;SDS011;4947;44.526;11.360;2023-05-10T08:28:37;23.60;;;3.05;;
9815;SDS011;4947;44.526;11.360;2023-05-10T08:31:05;62.10;;;9.95;;
9815;SDS011;4947;44.526;11.360;2023-05-10T08:33:32;292.40;;;29.25;;
9815;SDS011;4947;44.526;11.360;2023-05-10T08:35:59;287.25;;;28.05;;
9815;SDS011;4947;44.526;11.360;2023-05-10T08:38:28;199.43;;;20.23;;
9815;SDS011;4947;44.526;11.360;2023-05-10T08:40:55;97.55;;;11.18;;
9815;SDS011;4947;44.526;11.360;2023-05-10T08:43:29;166.20;;;14.60;;
9815;SDS011;4947;44.526;11.360;2023-05-10T08:45:59;125.15;;;12.00;;
9815;SDS011;4947;44.526;11.360;2023-05-10T08:48:27;130.02;;;14.90;;
9815;SDS011;4947;44.526;11.360;2023-05-10T08:50:57;124.75;;;12.52;;
9815;SDS011;4947;44.526;11.360;2023-05-10T08:53:28;133.73;;;14.07;;
9815;SDS011;4947;44.526;11.360;2023-05-10T08:55:57;88.07;;;12.65;;
9815;SDS011;4947;44.526;11.360;2023-05-10T08:58:25;101.43;;;12.35;;
9815;SDS011;4947;44.526;11.360;2023-05-10T09:00:52;118.53;;;14.32;;
9815;SDS011;4947;44.526;11.360;2023-05-10T09:03:20;95.38;;;11.25;;
9815;SDS011;4947;44.526;11.360;2023-05-10T09:05:47;73.60;;;10.48;;
9815;SDS011;4947;44.526;11.360;2023-05-10T09:08:15;79.72;;;11.38;;
9815;SDS011;4947;44.526;11.360;2023-05-10T09:10:45;76.43;;;9.98;;
9815;SDS011;4947;44.526;11.360;2023-05-10T09:13:14;62.10;;;9.25;;
9815;SDS011;4947;44.526;11.360;2023-05-10T09:15:46;67.22;;;8.38;;
9815;SDS011;4947;44.526;11.360;2023-05-10T09:18:15;47.25;;;8.02;;
9815;SDS011;4947;44.526;11.360;2023-05-10T09:20:43;59.80;;;8.27;;
9815;SDS011;4947;44.526;11.360;2023-05-10T09:23:10;38.60;;;8.48;;
9815;SDS011;4947;44.526;11.360;2023-05-10T09:25:38;31.90;;;6.82;;
9815;SDS011;4947;44.526;11.360;2023-05-10T09:28:09;47.88;;;7.78;;
9815;SDS011;4947;44.526;11.360;2023-05-10T09:30:37;38.55;;;7.45;;
9815;SDS011;4947;44.526;11.360;2023-05-10T09:33:05;40.42;;;6.85;;
9815;SDS011;4947;44.526;11.360;2023-05-10T09:35:32;37.72;;;7.60;;
9815;SDS011;4947;44.526;11.360;2023-05-10T09:38:00;32.10;;;5.35;;
9815;SDS011;4947;44.526;11.360;2023-05-10T09:40:29;38.78;;;6.25;;
9815;SDS011;4947;44.526;11.360;2023-05-10T09:42:58;31.92;;;6.82;;
9815;SDS011;4947;44.526;11.360;2023-05-10T09:45:29;46.40;;;7.55;;
9815;SDS011;4947;44.526;11.360;2023-05-10T09:47:57;45.97;;;6.15;;
9815;SDS011;4947;44.526;11.360;2023-05-10T09:50:25;34.08;;;6.57;;
9815;SDS011;4947;44.526;11.360;2023-05-10T09:52:55;34.08;;;7.63;;
9815;SDS011;4947;44.526;11.360;2023-05-10T09:55:24;45.72;;;7.50;;
9815;SDS011;4947;44.526;11.360;2023-05-10T09:57:58;36.83;;;6.82;;
9815;SDS011;4947;44.526;11.360;2023-05-10T10:00:27;30.17;;;6.20;;
9815;SDS011;4947;44.526;11.360;2023-05-10T10:03:01;42.55;;;7.50;;
9815;SDS011;4947;44.526;11.360;2023-05-10T10:05:29;35.47;;;6.97;;
9815;SDS011;4947;44.526;11.360;2023-05-10T10:10:28;25.98;;;6.95;;
9815;SDS011;4947;44.526;11.360;2023-05-10T10:12:57;37.08;;;5.72;;
9815;SDS011;4947;44.526;11.360;2023-05-10T10:15:25;45.05;;;5.72;;
9815;SDS011;4947;44.526;11.360;2023-05-10T10:17:54;32.50;;;5.80;;
